createdAt,value
2023-02-18T00:04:54.966Z,10.13
2023-02-18T00:09:56.376Z,10.15
2023-02-18T00:14:58.285Z,10.12
2023-02-18T00:19:59.975Z,10.11
2023-02-18T00:25:01.634Z,10.07
2023-02-18T00:30:03.650Z,10.07
2023-02-18T00:35:05.283Z,10.06
2023-02-18T00:40:07.569Z,10.03
2023-02-18T00:45:12.331Z,10.08
2023-02-18T00:50:13.830Z,10.11
2023-02-18T00:55:15.461Z,10.04
2023-02-18T01:00:17.096Z,10.01
2023-02-18T01:05:18.527Z,10.03
2023-02-18T01:10:20.434Z,10.02
2023-02-18T01:15:22.741Z,9.96
2023-02-18T01:20:24.324Z,9.98
2023-02-18T01:25:25.887Z,9.96
2023-02-18T01:30:27.823Z,9.95
2023-02-18T01:35:29.605Z,9.94
2023-02-18T01:40:31.022Z,9.90
2023-02-18T01:45:35.476Z,9.94
2023-02-18T01:50:47.247Z,9.99
2023-02-18T01:55:49.382Z,9.88
2023-02-18T02:00:50.957Z,9.96
2023-02-18T02:05:52.531Z,9.93
2023-02-18T02:11:08.627Z,9.94
2023-02-18T02:16:25.013Z,9.89
2023-02-18T02:21:54.786Z,9.93
2023-02-18T02:27:02.164Z,10.01
2023-02-18T02:32:21.556Z,9.89
2023-02-18T02:37:34.099Z,9.86
2023-02-18T02:42:56.938Z,9.87
2023-02-18T02:48:33.046Z,9.91
2023-02-18T02:53:37.160Z,9.87
2023-02-18T02:58:38.641Z,9.92
2023-02-18T03:04:10.103Z,9.92
2023-02-18T03:09:32.409Z,9.89
2023-02-18T03:14:53.323Z,9.90
2023-02-18T03:20:03.070Z,9.90
2023-02-18T03:25:05.612Z,9.85
2023-02-18T03:30:11.410Z,9.85
2023-02-18T03:35:16.024Z,9.85
2023-02-18T03:40:18.492Z,9.85
2023-02-18T03:45:20.073Z,9.88
2023-02-18T03:50:22.262Z,9.84
2023-02-18T03:55:23.845Z,9.85
2023-02-18T04:00:25.315Z,9.86
2023-02-18T04:05:26.988Z,9.80
2023-02-18T04:10:28.508Z,9.90
2023-02-18T04:15:29.947Z,9.92
2023-02-18T04:20:31.556Z,9.83
2023-02-18T04:25:33.016Z,9.79
2023-02-18T04:30:34.509Z,9.89
2023-02-18T04:35:36.175Z,9.87
2023-02-18T04:40:37.827Z,9.88
2023-02-18T04:45:39.343Z,9.89
2023-02-18T04:50:41.070Z,9.87
2023-02-18T04:55:42.603Z,9.89
2023-02-18T05:00:44.162Z,9.85
2023-02-18T05:05:45.796Z,9.91
2023-02-18T05:10:47.460Z,9.84
2023-02-18T05:15:49.581Z,9.76
2023-02-18T05:20:51.117Z,9.82
2023-02-18T05:25:52.825Z,9.87
2023-02-18T05:30:54.400Z,9.82
2023-02-18T05:35:55.946Z,9.89
2023-02-18T05:40:57.542Z,9.74
2023-02-18T05:45:59.072Z,9.84
2023-02-18T05:51:00.573Z,9.85
2023-02-18T05:56:02.017Z,9.91
2023-02-18T06:01:03.914Z,9.86
2023-02-18T06:06:06.106Z,9.95
2023-02-18T06:11:07.938Z,9.92
2023-02-18T06:16:09.954Z,9.93
2023-02-18T06:21:11.675Z,9.95
2023-02-18T06:26:13.581Z,9.92
2023-02-18T06:31:15.192Z,9.91
2023-02-18T06:36:17.041Z,9.81
2023-02-18T06:41:18.546Z,9.78
2023-02-18T06:46:20.253Z,9.86
2023-02-18T06:51:21.740Z,9.81
2023-02-18T06:56:23.208Z,9.83
2023-02-18T07:01:24.690Z,9.85
2023-02-18T07:06:26.210Z,9.78
2023-02-18T07:11:27.957Z,9.73
2023-02-18T07:16:29.637Z,9.80
2023-02-18T07:21:31.481Z,9.75
2023-02-18T07:26:32.983Z,9.78
2023-02-18T07:31:34.605Z,9.61
2023-02-18T07:36:36.065Z,9.65
2023-02-18T07:41:37.915Z,9.89
2023-02-18T07:46:40.948Z,9.84
2023-02-18T07:51:42.407Z,9.80
2023-02-18T07:56:44.648Z,9.83
2023-02-18T08:01:46.772Z,9.91
2023-02-18T08:06:49.422Z,9.91
2023-02-18T08:11:50.903Z,9.94
2023-02-18T08:16:52.395Z,9.92
2023-02-18T08:21:54.136Z,9.95
2023-02-18T08:27:00.694Z,9.85
2023-02-18T08:32:02.517Z,9.99
2023-02-18T08:37:04.034Z,9.96
2023-02-18T08:42:05.805Z,10.00
2023-02-18T08:48:17.766Z,9.96
2023-02-18T08:52:28.982Z,10.03
2023-02-18T08:57:30.564Z,9.93
2023-02-18T09:02:32.203Z,10.05
2023-02-18T09:07:33.615Z,10.05
2023-02-18T09:12:35.400Z,10.01
2023-02-18T09:17:36.958Z,10.12
2023-02-18T09:22:38.499Z,10.13
2023-02-18T09:27:39.922Z,10.09
2023-02-18T09:32:41.458Z,10.07
2023-02-18T09:37:43.119Z,10.08
2023-02-18T09:42:44.725Z,10.13
2023-02-18T09:47:46.977Z,10.12
2023-02-18T09:52:48.882Z,10.10
2023-02-18T09:57:53.920Z,10.15
2023-02-18T10:02:58.479Z,10.18
2023-02-18T10:08:17.145Z,10.23
2023-02-18T10:13:22.816Z,10.21
2023-02-18T10:18:41.534Z,10.24
2023-02-18T10:23:53.110Z,10.22
2023-02-18T10:28:55.064Z,10.20
2023-02-18T10:34:06.689Z,10.06
2023-02-18T10:39:38.635Z,10.14
2023-02-18T10:44:52.206Z,10.25
2023-02-18T10:50:05.783Z,10.17
2023-02-18T10:55:14.942Z,10.25
2023-02-18T11:00:22.156Z,10.22
2023-02-18T11:05:26.982Z,10.34
2023-02-18T11:10:35.603Z,10.35
2023-02-18T11:15:37.333Z,10.38
2023-02-18T11:20:39.884Z,10.43
2023-02-18T11:25:52.521Z,10.35
2023-02-18T11:30:57.314Z,10.38
2023-02-18T11:36:03.577Z,10.56
2023-02-18T11:41:12.060Z,10.69
2023-02-18T11:46:20.278Z,10.93
2023-02-18T11:51:43.379Z,11.08
2023-02-18T11:57:00.120Z,11.15
2023-02-18T12:02:10.530Z,11.15
2023-02-18T12:07:22.351Z,11.58
2023-02-18T12:12:31.128Z,11.60
2023-02-18T12:18:02.038Z,11.71
2023-02-18T12:23:17.338Z,11.60
2023-02-18T12:28:43.982Z,11.56
2023-02-18T12:34:00.685Z,11.56
2023-02-18T12:39:25.590Z,11.54
2023-02-18T12:44:39.874Z,11.61
2023-02-18T12:50:02.095Z,11.51
2023-02-18T12:55:15.867Z,11.68
2023-02-18T13:00:17.365Z,11.94
2023-02-18T13:05:26.656Z,11.89
2023-02-18T13:10:49.717Z,11.61
2023-02-18T13:16:13.348Z,11.47
2023-02-18T13:21:16.562Z,11.47
2023-02-18T13:26:21.150Z,11.50
2023-02-18T13:31:39.008Z,11.35
2023-02-18T13:36:47.002Z,11.16
2023-02-18T13:41:50.354Z,11.37
2023-02-18T13:46:57.072Z,11.39
2023-02-18T13:52:01.777Z,11.50
2023-02-18T13:57:06.410Z,11.48
2023-02-18T14:02:20.326Z,11.38
2023-02-18T14:07:52.686Z,11.34
2023-02-18T14:12:56.903Z,11.31
2023-02-18T14:18:13.292Z,11.37
2023-02-18T14:23:20.739Z,11.33
2023-02-18T14:28:34.255Z,11.26
2023-02-18T14:33:36.856Z,11.15
2023-02-18T14:38:41.456Z,11.08
2023-02-18T14:44:08.814Z,11.12
2023-02-18T14:49:29.181Z,10.99
2023-02-18T14:54:31.471Z,11.07
2023-02-18T14:59:40.913Z,11.01
2023-02-18T15:04:42.492Z,11.01
2023-02-18T15:09:49.193Z,10.99
2023-02-18T15:14:53.688Z,10.95
2023-02-18T15:20:06.144Z,11.00
2023-02-18T15:25:12.707Z,10.89
2023-02-18T15:30:30.771Z,10.95
2023-02-18T15:35:33.265Z,10.94
2023-02-18T15:40:38.058Z,10.97
2023-02-18T15:45:44.078Z,10.91
2023-02-18T15:50:51.538Z,10.89
2023-02-18T15:55:54.546Z,10.85
2023-02-18T16:00:59.100Z,10.91
2023-02-18T16:06:44.467Z,10.88
2023-02-18T16:11:56.486Z,10.82
2023-02-18T16:17:06.465Z,10.75
2023-02-18T16:22:24.603Z,10.70
2023-02-18T16:27:34.618Z,10.71
2023-02-18T16:32:36.093Z,10.69
2023-02-18T16:37:37.818Z,10.60
2023-02-18T16:42:39.197Z,10.58
2023-02-18T16:47:48.864Z,10.54
2023-02-18T16:52:50.327Z,10.53
2023-02-18T16:57:51.866Z,10.49
2023-02-18T17:02:56.711Z,10.40
2023-02-18T17:08:14.293Z,10.40
2023-02-18T17:13:22.352Z,10.40
2023-02-18T17:18:25.612Z,10.40
2023-02-18T17:23:27.119Z,10.38
2023-02-18T17:28:28.699Z,10.34
2023-02-18T17:33:30.287Z,10.32
2023-02-18T17:38:32.277Z,10.20
2023-02-18T17:43:34.299Z,10.27
2023-02-18T17:48:35.795Z,10.37
2023-02-18T17:53:37.275Z,10.30
2023-02-18T17:58:38.767Z,10.36
2023-02-18T18:03:40.537Z,10.36
2023-02-18T18:08:42.129Z,10.38
2023-02-18T18:13:44.190Z,10.38
2023-02-18T18:18:46.203Z,10.35
2023-02-18T18:23:48.155Z,10.29
2023-02-18T18:28:49.769Z,10.27
2023-02-18T18:33:52.112Z,10.26
2023-02-18T18:38:53.638Z,10.29
2023-02-18T18:43:55.068Z,10.30
2023-02-18T18:48:56.528Z,10.30
2023-02-18T18:53:58.259Z,10.34
2023-02-18T18:58:59.758Z,10.31
2023-02-18T19:04:01.210Z,10.27
2023-02-18T19:09:02.831Z,10.26
2023-02-18T19:14:04.357Z,10.18
2023-02-18T19:19:05.745Z,10.17
2023-02-18T19:24:09.463Z,10.15
2023-02-18T19:29:10.941Z,10.16
2023-02-18T19:34:12.484Z,10.20
2023-02-18T19:39:13.975Z,10.21
2023-02-18T19:44:15.459Z,10.23
2023-02-18T19:49:16.940Z,10.29
2023-02-18T19:54:18.434Z,10.27
2023-02-18T19:59:19.969Z,10.25
2023-02-18T20:04:22.345Z,10.19
2023-02-18T20:09:23.950Z,10.29
2023-02-18T20:14:25.427Z,10.25
2023-02-18T20:19:30.393Z,10.24
2023-02-18T20:24:34.044Z,10.25
2023-02-18T20:29:36.137Z,10.23
2023-02-18T20:34:37.717Z,10.29
2023-02-18T20:39:39.206Z,10.19
2023-02-18T20:44:40.814Z,10.14
2023-02-18T20:49:42.291Z,10.27
2023-02-18T20:54:43.900Z,10.32
2023-02-18T20:59:45.439Z,10.24
2023-02-18T21:04:46.961Z,10.27
2023-02-18T21:09:48.609Z,10.27
2023-02-18T21:14:50.114Z,10.29
2023-02-18T21:19:51.644Z,10.31
2023-02-18T21:24:53.158Z,10.16
2023-02-18T21:29:54.660Z,10.30
2023-02-18T21:34:56.232Z,10.30
2023-02-18T21:39:57.664Z,10.35
2023-02-18T21:44:59.150Z,10.29
2023-02-18T21:50:00.615Z,10.18
2023-02-18T21:55:02.066Z,10.18
2023-02-18T22:00:18.216Z,10.14
2023-02-18T22:05:21.332Z,10.25
2023-02-18T22:10:23.272Z,10.25
2023-02-18T22:15:24.945Z,10.27
2023-02-18T22:20:26.439Z,10.21
2023-02-18T22:25:27.911Z,10.16
2023-02-18T22:30:29.449Z,10.16
2023-02-18T22:35:30.926Z,10.19
2023-02-18T22:40:33.574Z,10.20
2023-02-18T22:45:37.859Z,10.25
2023-02-18T22:50:39.523Z,10.31
2023-02-18T22:55:41.008Z,10.31
2023-02-18T23:00:42.667Z,10.26
2023-02-18T23:05:44.124Z,10.23
2023-02-18T23:10:45.667Z,10.23
2023-02-18T23:15:56.219Z,10.17
2023-02-18T23:21:02.611Z,10.29
2023-02-18T23:26:05.389Z,10.17
2023-02-18T23:31:06.863Z,10.27
2023-02-18T23:36:16.545Z,10.23
2023-02-18T23:41:18.633Z,10.24
2023-02-18T23:46:22.435Z,10.31
2023-02-18T23:51:24.063Z,10.22
2023-02-18T23:56:27.420Z,10.22
